Time;durP1;ratioP1;P1;durP2;ratioP2;P2;SDS_P1;SDS_P2;PMS_P1;PMS_P2;Temp;Humidity;BMP_temperature;BMP_pressure;BME280_temperature;BME280_humidity;BME280_pressure;Samples;Min_cycle;Max_cycle;Signal;HPM_P1;HPM_P2
2022/10/22 09:55:15;;;;;;;7.47;6.72;;;13.80;99.90;;;;;;7415873;19;20465;-78
2022/10/22 09:57:41;;;;;;;10.10;6.88;;;13.70;99.90;;;;;;7414559;19;20194;-77
2022/10/22 10:00:08;;;;;;;10.38;8.60;;;13.80;99.90;;;;;;7415878;19;20319;-78
2022/10/22 10:02:35;;;;;;;8.80;7.80;;;13.80;99.90;;;;;;7413832;19;20332;-81
2022/10/22 10:05:01;;;;;;;9.82;7.70;;;13.90;99.90;;;;;;7409185;19;20360;-79
2022/10/22 10:07:30;;;;;;;12.07;7.55;;;14.00;99.90;;;;;;7413169;19;20419;-77
2022/10/22 10:09:56;;;;;;;8.52;6.82;;;14.10;99.90;;;;;;7410203;19;20354;-77
2022/10/22 10:12:29;;;;;;;10.20;6.70;;;14.10;99.90;;;;;;7410017;19;20296;-77
2022/10/22 10:15:02;;;;;;;8.85;6.20;;;14.20;99.90;;;;;;7409288;19;20347;-78
2022/10/22 10:17:53;;;;;;;6.57;5.93;;;14.20;99.90;;;;;;7415049;19;20841;-78
2022/10/22 10:20:37;;;;;;;7.22;5.60;;;14.30;99.90;;;;;;7310504;19;2004803;-78
2022/10/22 10:23:13;;;;;;;5.97;5.05;;;14.30;99.90;;;;;;7311178;19;2004656;-78
2022/10/22 10:25:56;;;;;;;6.13;5.43;;;14.50;99.90;;;;;;7416830;19;20304;-79
2022/10/22 10:28:46;;;;;;;5.47;4.97;;;14.60;99.90;;;;;;7420903;19;20399;-79
2022/10/22 10:31:20;;;;;;;6.28;5.07;;;14.70;99.90;;;;;;7308473;19;2020047;-79
2022/10/22 10:34:13;;;;;;;5.57;4.95;;;14.70;99.90;;;;;;7411556;19;20385;-79
2022/10/22 10:36:50;;;;;;;4.60;4.20;;;14.70;99.90;;;;;;7309118;19;2004412;-76
2022/10/22 10:39:55;;;;;;;4.15;3.75;;;14.70;99.90;;;;;;7417600;19;20345;-77
2022/10/22 10:42:35;;;;;;;4.72;4.05;;;14.80;99.90;;;;;;7316716;19;2004959;-79
2022/10/22 10:45:30;;;;;;;5.40;4.70;;;14.90;99.90;;;;;;7316086;19;2004470;-79
2022/10/22 10:48:26;;;;;;;6.68;4.57;;;14.90;99.90;;;;;;7417943;19;20320;-78
2022/10/22 10:51:05;;;;;;;5.93;4.70;;;15.00;99.90;;;;;;7315353;19;2004584;-79
2022/10/22 10:54:07;;;;;;;4.93;4.43;;;15.10;99.90;;;;;;7314222;19;2004459;-78
2022/10/22 10:56:39;;;;;;;6.05;4.88;;;15.20;99.90;;;;;;7308473;19;2004348;-79
2022/10/22 10:59:45;;;;;;;7.13;4.63;;;15.30;99.90;;;;;;7410895;19;20420;-79
2022/10/22 11:02:17;;;;;;;5.33;3.97;;;15.40;99.90;;;;;;7315529;19;2004340;-78
2022/10/22 11:05:25;;;;;;;5.25;4.20;;;15.50;99.90;;;;;;7406884;19;20357;-79
2022/10/22 11:08:20;;;;;;;6.10;4.97;;;15.60;99.90;;;;;;7281135;19;2004565;-76
2022/10/22 11:11:05;;;;;;;5.60;4.85;;;15.70;99.90;;;;;;7280021;19;2004408;-77
2022/10/22 11:13:35;;;;;;;5.38;4.70;;;15.60;99.90;;;;;;7279731;19;2004384;-79
2022/10/22 11:16:25;;;;;;;8.37;4.90;;;15.70;99.90;;;;;;7382105;19;20336;-77
2022/10/22 11:19:05;;;;;;;6.03;4.90;;;15.70;99.90;;;;;;7381537;19;20341;-78
2022/10/22 11:22:04;;;;;;;5.90;4.93;;;15.70;99.90;;;;;;7276877;19;2004905;-77
2022/10/22 11:24:40;;;;;;;5.45;4.65;;;15.60;99.90;;;;;;7279792;19;2004499;-78
2022/10/22 11:27:20;;;;;;;5.70;4.65;;;15.80;99.90;;;;;;7381394;19;20388;-77
2022/10/22 11:29:48;;;;;;;5.50;4.95;;;15.90;99.90;;;;;;7380947;19;20348;-78
2022/10/22 11:32:17;;;;;;;5.28;4.78;;;15.90;99.90;;;;;;7381680;19;20328;-78
2022/10/22 11:34:50;;;;;;;5.45;4.90;;;16.00;99.90;;;;;;7383793;19;21288;-78
2022/10/22 11:37:16;;;;;;;6.72;4.35;;;16.20;99.90;;;;;;7378532;19;20309;-77
2022/10/22 11:39:44;;;;;;;4.50;4.10;;;16.40;99.90;;;;;;7378715;19;20359;-78
2022/10/22 11:42:17;;;;;;;4.32;3.70;;;16.60;99.90;;;;;;7382603;19;20331;-78
2022/10/22 11:44:59;;;;;;;4.77;4.00;;;16.60;99.90;;;;;;7382364;19;20373;-78
2022/10/22 11:47:27;;;;;;;4.75;3.83;;;16.60;99.90;;;;;;7380265;19;20315;-78
2022/10/22 11:50:17;;;;;;;3.83;3.50;;;16.80;99.90;;;;;;7384485;19;20319;-77
2022/10/22 11:53:02;;;;;;;6.23;5.00;;;16.80;99.90;;;;;;7279651;19;2004232;-77
2022/10/22 11:55:46;;;;;;;5.83;5.03;;;16.60;99.90;;;;;;7382618;19;20841;-77
2022/10/22 11:58:27;;;;;;;5.30;4.80;;;16.50;99.90;;;;;;7290791;19;2004328;-79
2022/10/22 12:00:53;;;;;;;3.90;3.60;;;16.40;99.90;;;;;;7383354;19;20344;-77
2022/10/22 12:03:32;;;;;;;5.20;3.80;;;16.50;99.90;;;;;;7381850;19;20790;-77
2022/10/22 12:06:10;;;;;;;4.57;4.07;;;16.60;99.90;;;;;;7379746;19;20646;-77
2022/10/22 12:08:53;;;;;;;6.32;4.43;;;16.60;99.90;;;;;;7279148;19;2004388;-79
2022/10/22 12:11:37;;;;;;;6.05;4.20;;;16.60;99.90;;;;;;7378941;19;20373;-77
2022/10/22 12:14:15;;;;;;;5.97;4.43;;;16.60;99.90;;;;;;7280434;19;2020078;-78
2022/10/22 12:16:45;;;;;;;6.07;4.55;;;16.60;99.90;;;;;;7378311;19;20384;-78
2022/10/22 12:19:13;;;;;;;5.10;4.57;;;16.50;99.90;;;;;;7380360;19;20309;-77
2022/10/22 12:21:40;;;;;;;4.55;4.15;;;16.50;99.90;;;;;;7381011;19;20345;-79
2022/10/22 12:24:05;;;;;;;4.63;4.10;;;16.40;99.90;;;;;;7381401;19;20304;-77
2022/10/22 12:26:34;;;;;;;7.40;4.50;;;16.30;99.90;;;;;;7374302;19;20356;-77
2022/10/22 12:29:01;;;;;;;7.70;6.33;;;16.30;99.90;;;;;;7380902;19;20307;-78
2022/10/22 12:31:27;;;;;;;6.93;6.22;;;16.40;99.90;;;;;;7375419;19;20316;-78
2022/10/22 12:33:58;;;;;;;5.07;4.57;;;16.40;99.90;;;;;;7378913;19;20332;-78
2022/10/22 12:36:33;;;;;;;5.78;4.72;;;16.60;99.90;;;;;;7352015;19;20316;-78
2022/10/22 12:39:03;;;;;;;4.70;3.80;;;16.70;99.90;;;;;;7377442;19;21026;-79
2022/10/22 12:41:30;;;;;;;5.40;4.40;;;16.90;99.90;;;;;;7385443;19;20328;-77
2022/10/22 12:44:00;;;;;;;5.53;4.40;;;17.00;99.90;;;;;;7386068;19;20316;-77
2022/10/22 12:46:26;;;;;;;4.75;4.35;;;17.00;99.90;;;;;;7378903;19;20453;-79
2022/10/22 12:48:51;;;;;;;5.20;4.68;;;16.90;99.90;;;;;;7379551;19;21171;-79
2022/10/22 12:51:18;;;;;;;4.57;4.17;;;16.80;99.90;;;;;;7382288;19;20333;-79
2022/10/22 12:53:58;;;;;;;6.03;4.30;;;16.80;99.90;;;;;;7381122;19;20769;-78
2022/10/22 12:56:25;;;;;;;4.93;4.43;;;16.80;99.90;;;;;;7381790;19;20325;-77
2022/10/22 12:58:59;;;;;;;4.28;3.88;;;16.90;99.90;;;;;;7375813;19;20304;-79
2022/10/22 13:01:26;;;;;;;6.05;5.45;;;16.90;99.90;;;;;;7379761;19;20317;-77
2022/10/22 13:04:04;;;;;;;6.72;5.72;;;16.80;99.90;;;;;;7380243;19;20340;-77
2022/10/22 13:06:32;;;;;;;5.17;4.50;;;16.90;99.90;;;;;;7275366;19;2019815;-77
2022/10/22 13:09:07;;;;;;;4.70;4.30;;;16.90;99.90;;;;;;7380650;19;20330;-78
2022/10/22 13:11:36;;;;;;;4.97;3.40;;;17.00;99.90;;;;;;7277025;19;2004334;-81
2022/10/22 13:14:14;;;;;;;4.40;4.00;;;17.10;99.90;;;;;;7383982;19;20431;-77
2022/10/22 13:16:39;;;;;;;4.55;4.03;;;17.10;99.90;;;;;;7384150;19;20336;-77
2022/10/22 13:19:25;;;;;;;5.47;4.73;;;17.10;99.90;;;;;;7377840;19;20309;-78
2022/10/22 13:21:52;;;;;;;6.40;4.80;;;17.10;99.90;;;;;;7381355;19;20793;-78
2022/10/22 13:24:23;;;;;;;4.80;4.28;;;17.20;99.90;;;;;;7376793;19;20354;-80
2022/10/22 13:26:49;;;;;;;5.00;4.50;;;17.20;99.90;;;;;;7374525;19;20332;-80
2022/10/22 13:29:16;;;;;;;5.57;4.47;;;17.30;99.90;;;;;;7378170;19;20392;-79
2022/10/22 13:31:49;;;;;;;4.60;4.00;;;17.20;99.90;;;;;;7377947;19;20344;-79
2022/10/22 13:34:17;;;;;;;4.78;4.38;;;17.20;99.90;;;;;;7378475;19;20522;-78
2022/10/22 13:36:42;;;;;;;4.60;4.20;;;17.20;99.90;;;;;;7374127;19;20342;-78
2022/10/22 13:39:18;;;;;;;4.50;3.80;;;17.20;99.90;;;;;;7378501;19;20353;-78
2022/10/22 13:41:44;;;;;;;5.28;4.63;;;17.20;99.90;;;;;;7376402;19;20344;-79
2022/10/22 13:44:10;;;;;;;5.05;4.55;;;17.20;99.90;;;;;;7378297;19;20878;-79
2022/10/22 13:46:41;;;;;;;4.70;4.30;;;17.20;99.90;;;;;;7376011;19;20387;-78
2022/10/22 13:49:08;;;;;;;4.72;4.25;;;17.10;99.90;;;;;;7375756;19;20833;-79
2022/10/22 13:51:37;;;;;;;4.57;4.18;;;17.10;99.90;;;;;;7379103;19;20400;-79
2022/10/22 13:54:03;;;;;;;5.30;4.80;;;17.00;99.90;;;;;;7375349;19;20376;-79
2022/10/22 13:56:28;;;;;;;4.70;4.30;;;17.00;99.90;;;;;;7375732;19;20394;-78
2022/10/22 13:58:54;;;;;;;5.00;4.17;;;17.10;99.90;;;;;;7379858;19;20309;-79
2022/10/22 14:01:21;;;;;;;4.03;3.73;;;17.10;99.90;;;;;;7381419;19;20321;-79
2022/10/22 14:03:54;;;;;;;5.00;4.50;;;17.00;99.90;;;;;;7376600;19;20351;-79
2022/10/22 14:06:20;;;;;;;4.75;4.35;;;17.00;99.90;;;;;;7374982;19;20313;-78
2022/10/22 14:08:49;;;;;;;7.63;5.07;;;17.00;99.90;;;;;;7376701;19;20359;-79
2022/10/22 14:11:15;;;;;;;5.10;4.30;;;16.90;99.90;;;;;;7378665;19;20371;-78
2022/10/22 14:13:40;;;;;;;5.20;4.07;;;17.00;99.90;;;;;;7378782;19;20340;-78
2022/10/22 14:16:06;;;;;;;6.07;3.90;;;17.00;99.90;;;;;;7379105;19;20336;-78
2022/10/22 14:18:32;;;;;;;3.83;3.50;;;17.00;99.90;;;;;;7384086;19;20194;-78
2022/10/22 14:20:59;;;;;;;6.80;4.65;;;17.00;99.90;;;;;;7384462;19;20269;-78
2022/10/22 14:23:29;;;;;;;7.75;4.95;;;17.10;99.90;;;;;;7378976;19;20343;-78
2022/10/22 14:25:54;;;;;;;4.53;4.13;;;17.10;99.90;;;;;;7378336;19;20384;-78
2022/10/22 14:28:20;;;;;;;4.27;3.87;;;17.10;99.90;;;;;;7376646;19;20324;-80
2022/10/22 14:30:46;;;;;;;3.70;3.40;;;17.10;99.90;;;;;;7377847;19;20340;-79
2022/10/22 14:33:15;;;;;;;4.88;4.32;;;17.00;99.90;;;;;;7378623;19;20333;-80
2022/10/22 14:35:40;;;;;;;5.75;4.03;;;17.00;99.90;;;;;;7383354;19;20340;-80
2022/10/22 14:38:06;;;;;;;3.80;3.50;;;17.00;99.90;;;;;;7375305;19;20312;-80
2022/10/22 14:40:31;;;;;;;3.40;3.10;;;17.00;99.90;;;;;;7382475;19;20333;-80
2022/10/22 14:42:57;;;;;;;4.07;2.93;;;17.00;99.90;;;;;;7386104;19;20350;-80
2022/10/22 14:45:24;;;;;;;3.50;3.20;;;17.00;99.90;;;;;;7385813;19;20327;-78
2022/10/22 14:47:50;;;;;;;4.47;3.30;;;16.90;99.90;;;;;;7390720;19;24821;-79
2022/10/22 14:50:16;;;;;;;4.10;3.70;;;16.90;99.90;;;;;;7387483;19;20439;-79
2022/10/22 14:52:42;;;;;;;3.80;3.50;;;16.90;99.90;;;;;;7384952;19;20345;-80
2022/10/22 14:55:11;;;;;;;3.28;3.00;;;16.90;99.90;;;;;;7382417;19;20340;-79
2022/10/22 14:57:38;;;;;;;4.55;3.30;;;16.90;99.90;;;;;;7389880;19;20442;-78
2022/10/22 15:00:04;;;;;;;2.85;2.60;;;16.90;99.90;;;;;;7386408;19;21151;-80
2022/10/22 15:02:30;;;;;;;3.40;3.10;;;16.90;99.90;;;;;;7384393;19;20910;-79
2022/10/22 15:04:55;;;;;;;3.40;3.13;;;16.90;99.90;;;;;;7382767;19;20321;-79
2022/10/22 15:07:23;;;;;;;3.17;2.87;;;16.80;99.90;;;;;;7376920;19;20321;-80
2022/10/22 15:09:49;;;;;;;3.30;3.00;;;16.80;99.90;;;;;;7381334;19;20352;-80
2022/10/22 15:12:15;;;;;;;2.30;2.10;;;16.70;99.90;;;;;;7387106;19;20321;-78
2022/10/22 15:14:40;;;;;;;3.03;2.60;;;16.70;99.90;;;;;;7378096;19;21284;-79
2022/10/22 15:17:06;;;;;;;2.42;2.22;;;16.70;99.90;;;;;;7387023;19;20663;-80
2022/10/22 15:19:32;;;;;;;3.38;2.70;;;16.60;99.90;;;;;;7383380;19;20337;-79
2022/10/22 15:21:57;;;;;;;3.70;2.50;;;16.60;99.90;;;;;;7391665;19;20296;-78
2022/10/22 15:24:23;;;;;;;2.70;2.50;;;16.60;99.90;;;;;;7394025;19;20692;-78
2022/10/22 15:26:52;;;;;;;2.75;2.22;;;16.50;99.90;;;;;;7366560;19;20309;-80
2022/10/22 15:29:17;;;;;;;2.65;2.45;;;16.50;99.90;;;;;;7383244;19;20349;-77
2022/10/22 15:31:50;;;;;;;4.50;2.30;;;16.50;99.90;;;;;;7383374;19;20336;-80
2022/10/22 15:34:20;;;;;;;2.30;2.10;;;16.50;99.90;;;;;;7384813;19;20321;-81
2022/10/22 15:36:46;;;;;;;2.30;2.10;;;16.40;99.90;;;;;;7392518;19;20340;-81
2022/10/22 15:39:11;;;;;;;2.95;2.42;;;16.40;99.90;;;;;;7385781;19;20632;-79
2022/10/22 15:41:37;;;;;;;2.60;2.40;;;16.40;99.90;;;;;;7385077;19;20356;-79
2022/10/22 15:44:04;;;;;;;2.03;1.93;;;16.30;99.90;;;;;;7380942;19;20328;-79
2022/10/22 15:46:31;;;;;;;2.40;2.20;;;16.30;99.90;;;;;;7376837;19;20307;-79
2022/10/22 15:48:56;;;;;;;3.78;2.92;;;16.30;99.90;;;;;;7380073;19;20944;-78
2022/10/22 15:51:22;;;;;;;3.43;3.10;;;16.20;99.90;;;;;;7377130;19;20316;-79
2022/10/22 15:53:51;;;;;;;3.10;2.80;;;16.20;99.90;;;;;;7380704;19;20344;-77
2022/10/22 15:56:17;;;;;;;2.85;2.65;;;16.10;99.90;;;;;;7378862;19;20872;-79
2022/10/22 15:58:42;;;;;;;4.38;2.65;;;16.10;99.90;;;;;;7389749;19;20341;-79
2022/10/22 16:01:11;;;;;;;2.60;2.40;;;16.10;99.90;;;;;;7383484;19;20535;-78
2022/10/22 16:03:37;;;;;;;2.60;2.40;;;16.00;99.90;;;;;;7379976;19;20347;-78
2022/10/22 16:06:03;;;;;;;2.30;2.15;;;16.00;99.90;;;;;;7374858;19;20379;-78
2022/10/22 16:08:28;;;;;;;2.40;2.20;;;15.90;99.90;;;;;;7379157;19;20742;-78
2022/10/22 16:10:54;;;;;;;2.50;2.30;;;15.90;99.90;;;;;;7379040;19;20323;-79
2022/10/22 16:13:22;;;;;;;2.58;2.38;;;15.90;99.90;;;;;;7378801;19;20357;-78
2022/10/22 16:15:48;;;;;;;3.93;2.40;;;15.80;99.90;;;;;;7377176;19;20348;-79
2022/10/22 16:18:13;;;;;;;4.78;3.53;;;15.80;99.90;;;;;;7379291;19;20320;-79
2022/10/22 16:20:39;;;;;;;3.97;3.60;;;15.70;99.90;;;;;;7380058;19;20376;-77
2022/10/22 16:23:05;;;;;;;4.37;3.67;;;15.60;99.90;;;;;;7379129;19;20857;-78
2022/10/22 20:50:46;;;;;;;2.50;2.30;;;11.20;99.90;;;;;;7207697;19;3638412;-79
2022/10/22 20:53:12;;;;;;;1.90;1.80;;;11.40;99.90;;;;;;7404731;19;20348;-77
2022/10/22 20:55:37;;;;;;;2.10;2.00;;;11.40;99.90;;;;;;7405531;19;20344;-78
2022/10/22 20:58:03;;;;;;;1.90;1.80;;;11.50;99.90;;;;;;7402371;19;20348;-78
2022/10/22 21:00:34;;;;;;;2.70;2.50;;;11.50;99.90;;;;;;7397030;19;20364;-78
2022/10/22 21:03:00;;;;;;;2.60;2.40;;;11.60;99.90;;;;;;7402176;19;21242;-75
2022/10/22 21:05:25;;;;;;;4.30;3.77;;;11.60;99.90;;;;;;7400945;19;20351;-75
2022/10/22 21:07:51;;;;;;;4.10;3.70;;;11.60;99.90;;;;;;7401106;19;20370;-75
2022/10/22 21:10:17;;;;;;;2.92;2.50;;;11.60;99.90;;;;;;7389209;19;20388;-75
2022/10/22 21:12:44;;;;;;;2.80;2.60;;;11.60;99.90;;;;;;7401310;19;20355;-75
2022/10/22 21:15:10;;;;;;;3.10;2.80;;;11.60;99.90;;;;;;7395525;19;20884;-74
2022/10/22 21:17:36;;;;;;;2.45;2.25;;;11.60;99.90;;;;;;7400952;19;20363;-75
2022/10/22 21:20:01;;;;;;;2.63;2.30;;;11.70;99.90;;;;;;7393498;19;20397;-75
2022/10/22 21:22:27;;;;;;;2.80;2.20;;;11.70;99.90;;;;;;7401082;19;20370;-75
2022/10/22 21:24:52;;;;;;;2.05;1.90;;;11.70;99.90;;;;;;7399490;19;21425;-75
2022/10/22 21:27:18;;;;;;;2.50;2.30;;;11.80;99.90;;;;;;7400523;19;20343;-76
2022/10/22 21:29:43;;;;;;;2.30;2.10;;;11.80;99.90;;;;;;7394964;19;21356;-75
2022/10/22 21:32:09;;;;;;;3.78;2.47;;;11.80;99.90;;;;;;7402768;19;20366;-77
2022/10/22 21:34:34;;;;;;;2.00;1.90;;;11.80;99.90;;;;;;7405761;19;20880;-76
2022/10/22 21:37:00;;;;;;;1.93;1.83;;;11.80;99.90;;;;;;7401471;19;20439;-79
2022/10/22 21:39:26;;;;;;;1.70;1.60;;;11.80;99.90;;;;;;7397433;19;20355;-79
2022/10/22 21:41:51;;;;;;;2.17;1.98;;;11.80;99.90;;;;;;7399741;19;22317;-77
2022/10/22 21:44:17;;;;;;;1.80;1.70;;;11.80;99.90;;;;;;7389502;19;20484;-77
2022/10/22 21:46:42;;;;;;;3.33;2.73;;;11.80;99.90;;;;;;7397174;19;20482;-76
2022/10/22 21:49:09;;;;;;;2.97;2.67;;;11.80;99.90;;;;;;7399921;19;20380;-75
2022/10/22 21:51:37;;;;;;;1.83;1.73;;;11.80;99.90;;;;;;7362577;19;20377;-76
2022/10/22 21:54:02;;;;;;;1.75;1.65;;;11.80;99.90;;;;;;7371128;19;20394;-76
2022/10/22 21:56:31;;;;;;;2.10;1.90;;;11.80;99.90;;;;;;7370337;19;20861;-76
2022/10/22 21:58:57;;;;;;;1.60;1.50;;;11.90;99.90;;;;;;7367185;19;20914;-74
2022/10/22 22:01:22;;;;;;;1.50;1.40;;;11.90;99.90;;;;;;7363023;19;21234;-75
2022/10/22 22:03:48;;;;;;;2.30;1.80;;;11.90;99.90;;;;;;7371731;19;20372;-74
2022/10/22 22:06:14;;;;;;;2.67;1.70;;;12.00;99.90;;;;;;7372056;19;20873;-74
2022/10/22 22:08:40;;;;;;;1.63;1.52;;;12.00;99.90;;;;;;7370648;19;20379;-74
2022/10/22 22:11:13;;;;;;;1.97;1.77;;;12.00;99.90;;;;;;7360187;19;20363;-74
2022/10/22 22:13:39;;;;;;;2.20;1.73;;;12.10;99.90;;;;;;7360330;19;20352;-75
2022/10/22 22:16:06;;;;;;;2.45;1.85;;;12.10;99.90;;;;;;7367431;19;20385;-75
2022/10/22 22:18:32;;;;;;;1.70;1.60;;;12.20;99.90;;;;;;7368613;19;20348;-75
2022/10/22 22:20:57;;;;;;;2.10;1.70;;;12.20;99.90;;;;;;7362336;19;20833;-74
2022/10/22 22:23:23;;;;;;;3.03;2.20;;;12.20;99.90;;;;;;7365966;19;20446;-74
2022/10/22 22:25:49;;;;;;;2.30;1.77;;;12.30;99.90;;;;;;7361182;19;20344;-74
2022/10/22 22:28:14;;;;;;;1.80;1.60;;;12.30;99.90;;;;;;7363142;19;20369;-74
2022/10/22 22:30:40;;;;;;;1.88;1.77;;;12.30;99.90;;;;;;7357826;19;20371;-74
2022/10/22 22:33:06;;;;;;;1.52;1.42;;;12.40;99.90;;;;;;7367671;19;20367;-74
2022/10/22 22:35:33;;;;;;;1.67;1.57;;;12.40;99.90;;;;;;7367550;19;20706;-74
2022/10/22 22:37:58;;;;;;;1.70;1.60;;;12.50;99.90;;;;;;7366479;19;20356;-74
2022/10/22 22:40:24;;;;;;;1.80;1.70;;;12.50;99.90;;;;;;7358099;19;20364;-74
2022/10/22 22:42:50;;;;;;;1.50;1.40;;;12.50;99.90;;;;;;7362264;19;21015;-76
2022/10/22 22:45:15;;;;;;;2.40;1.90;;;12.50;99.90;;;;;;7367506;19;20379;-76
2022/10/22 22:47:41;;;;;;;1.77;1.67;;;12.60;99.90;;;;;;7368819;19;20880;-75
2022/10/22 22:50:07;;;;;;;4.13;3.23;;;12.60;99.90;;;;;;7356190;19;20349;-76
2022/10/22 22:52:33;;;;;;;3.03;2.50;;;12.60;99.90;;;;;;7365612;19;20348;-76
2022/10/22 22:54:58;;;;;;;2.20;2.00;;;12.70;99.90;;;;;;7365139;19;21393;-77
2022/10/22 22:57:24;;;;;;;1.75;1.65;;;12.70;99.90;;;;;;7368136;19;20364;-74
2022/10/22 22:59:49;;;;;;;2.43;1.40;;;12.70;99.90;;;;;;7357765;19;20348;-74
2022/10/22 23:02:15;;;;;;;2.13;1.87;;;12.80;99.90;;;;;;7352387;19;20357;-74
2022/10/22 23:04:40;;;;;;;1.52;1.42;;;12.80;99.90;;;;;;7364820;19;20375;-74
2022/10/22 23:07:06;;;;;;;1.70;1.60;;;12.80;99.90;;;;;;7363112;19;20368;-74
2022/10/22 23:09:32;;;;;;;1.70;1.60;;;12.70;99.90;;;;;;7360630;19;21008;-74
2022/10/22 23:11:57;;;;;;;1.90;1.70;;;12.70;99.90;;;;;;7358404;19;20391;-75
2022/10/22 23:14:23;;;;;;;1.60;1.50;;;12.70;99.90;;;;;;7365555;19;21352;-74
2022/10/22 23:16:49;;;;;;;1.70;1.50;;;12.70;99.90;;;;;;7364412;19;20494;-74
2022/10/22 23:19:17;;;;;;;1.73;1.63;;;12.70;99.90;;;;;;7362588;19;20368;-74
2022/10/22 23:21:47;;;;;;;1.63;1.52;;;12.60;99.90;;;;;;7357381;19;20436;-75
2022/10/22 23:24:14;;;;;;;1.50;1.40;;;12.60;99.90;;;;;;7353949;19;20365;-74
2022/10/22 23:26:42;;;;;;;1.90;1.80;;;12.60;99.90;;;;;;7356023;19;20368;-75
2022/10/22 23:29:10;;;;;;;2.05;1.67;;;12.50;99.90;;;;;;7362276;19;20363;-74
2022/10/22 23:31:36;;;;;;;1.83;1.65;;;12.40;99.90;;;;;;7356327;19;20371;-74
2022/10/22 23:34:02;;;;;;;2.05;1.85;;;12.40;99.90;;;;;;7363947;19;20718;-74
2022/10/22 23:36:28;;;;;;;2.97;1.90;;;12.30;99.90;;;;;;7365329;19;20871;-74
2022/10/22 23:38:54;;;;;;;1.73;1.63;;;12.20;99.90;;;;;;7358528;19;20367;-74
2022/10/22 23:41:20;;;;;;;1.83;1.73;;;12.20;99.90;;;;;;7351624;19;20375;-75
2022/10/22 23:43:45;;;;;;;1.87;1.77;;;12.10;99.90;;;;;;7362386;19;20352;-74
2022/10/22 23:46:11;;;;;;;2.57;1.87;;;12.10;99.90;;;;;;7360975;19;20348;-74
2022/10/22 23:48:38;;;;;;;2.53;1.63;;;12.00;99.90;;;;;;7360147;19;20802;-74
2022/10/22 23:51:08;;;;;;;1.63;1.52;;;11.90;99.90;;;;;;7357864;19;20378;-74
2022/10/22 23:53:33;;;;;;;2.10;1.67;;;11.90;99.90;;;;;;7353252;19;20336;-74
2022/10/22 23:56:03;;;;;;;1.80;1.70;;;11.80;99.90;;;;;;7360339;19;21000;-76
2022/10/22 23:58:29;;;;;;;1.65;1.55;;;11.80;99.90;;;;;;7360299;19;21035;-76
